createdAt,value
2018-06-17T00:01:30.777Z,81.60
2018-06-17T00:04:05.010Z,82.20
2018-06-17T00:06:39.367Z,82.10
2018-06-17T00:09:13.620Z,83.80
2018-06-17T00:11:48.081Z,83.40
2018-06-17T00:14:22.598Z,83.60
2018-06-17T00:16:56.878Z,83.60
2018-06-17T00:19:31.075Z,83.60
2018-06-17T00:22:05.302Z,83.20
2018-06-17T00:24:39.631Z,85.50
2018-06-17T00:27:13.999Z,85.20
2018-06-17T00:29:48.313Z,85.80
2018-06-17T00:32:22.531Z,85.30
2018-06-17T00:34:56.982Z,85.40
2018-06-17T00:37:31.281Z,85.80
2018-06-17T00:40:05.482Z,85.70
2018-06-17T00:42:39.830Z,85.40
2018-06-17T00:45:14.184Z,85.90
2018-06-17T00:47:48.487Z,86.20
2018-06-17T00:50:22.767Z,85.90
2018-06-17T00:52:57.010Z,85.10
2018-06-17T00:55:31.380Z,84.60
2018-06-17T00:58:05.720Z,85.10
2018-06-17T01:00:40.154Z,85.10
2018-06-17T01:03:14.483Z,84.70
2018-06-17T01:05:48.845Z,84.70
2018-06-17T01:08:23.133Z,84.10
2018-06-17T01:10:57.462Z,84.00
2018-06-17T01:13:31.644Z,83.80
2018-06-17T01:16:06.056Z,83.80
2018-06-17T01:18:40.348Z,83.90
2018-06-17T01:21:14.620Z,84.20
2018-06-17T01:23:48.999Z,82.50
2018-06-17T01:26:23.282Z,83.10
2018-06-17T01:28:57.646Z,82.00
2018-06-17T01:31:31.844Z,82.40
2018-06-17T01:34:06.243Z,82.20
2018-06-17T01:36:40.582Z,83.50
2018-06-17T01:39:14.906Z,83.70
2018-06-17T01:41:49.172Z,82.40
2018-06-17T01:44:23.554Z,81.90
2018-06-17T01:46:57.872Z,82.10
2018-06-17T01:49:32.086Z,82.50
2018-06-17T01:52:06.420Z,82.60
2018-06-17T01:54:40.645Z,82.60
2018-06-17T01:57:14.793Z,82.50
2018-06-17T01:59:49.026Z,82.40
2018-06-17T02:02:23.357Z,82.50
2018-06-17T02:05:03.111Z,82.50
2018-06-17T02:07:42.777Z,82.30
2018-06-17T02:10:22.515Z,82.50
2018-06-17T02:12:56.694Z,82.50
2018-06-17T02:15:31.045Z,82.80
2018-06-17T02:18:05.365Z,83.30
2018-06-17T02:20:39.587Z,83.60
2018-06-17T02:23:13.903Z,83.50
2018-06-17T02:25:48.335Z,83.50
2018-06-17T02:28:22.626Z,83.50
2018-06-17T02:33:31.066Z,83.90
2018-06-17T02:36:05.485Z,84.30
2018-06-17T02:38:39.642Z,84.30
2018-06-17T02:41:14.091Z,84.40
2018-06-17T02:43:48.393Z,84.10
2018-06-17T02:46:28.267Z,84.40
2018-06-17T02:49:07.924Z,84.70
2018-06-17T02:51:47.453Z,85.30
2018-06-17T02:54:26.982Z,85.40
2018-06-17T02:57:01.144Z,85.00
2018-06-17T02:59:35.410Z,85.80
2018-06-17T03:02:09.996Z,86.30
2018-06-17T03:04:44.325Z,86.00
2018-06-17T03:07:18.467Z,86.90
2018-06-17T03:09:52.922Z,86.00
2018-06-17T03:12:27.181Z,86.00
2018-06-17T03:15:01.431Z,86.30
2018-06-17T03:17:35.793Z,86.40
2018-06-17T03:20:10.044Z,86.50
2018-06-17T03:22:44.266Z,86.60
2018-06-17T03:25:24.066Z,86.80
2018-06-17T03:28:03.593Z,87.10
2018-06-17T03:30:43.350Z,86.80
2018-06-17T03:33:22.933Z,86.80
2018-06-17T03:36:02.515Z,87.00
2018-06-17T03:38:36.738Z,86.40
2018-06-17T03:41:11.999Z,86.40
2018-06-17T03:43:46.192Z,86.40
2018-06-17T03:46:20.489Z,86.40
2018-06-17T03:48:54.780Z,86.90
2018-06-17T03:51:29.200Z,87.90
2018-06-17T03:54:03.422Z,88.40
2018-06-17T03:56:37.808Z,88.60
2018-06-17T03:59:11.989Z,88.30
2018-06-17T04:01:46.443Z,88.20
2018-06-17T04:04:22.582Z,88.30
2018-06-17T04:06:56.774Z,88.20
2018-06-17T04:09:31.137Z,88.10
2018-06-17T04:12:05.459Z,88.40
2018-06-17T04:14:40.060Z,88.20
2018-06-17T04:17:15.114Z,88.30
2018-06-17T04:19:49.415Z,88.10
2018-06-17T04:22:23.750Z,88.20
2018-06-17T04:24:57.999Z,88.30
2018-06-17T04:27:32.459Z,87.80
2018-06-17T04:30:06.713Z,88.40
2018-06-17T04:32:40.942Z,87.80
2018-06-17T04:35:15.114Z,87.20
2018-06-17T04:37:49.401Z,87.00
2018-06-17T04:40:23.753Z,87.70
2018-06-17T04:42:58.039Z,87.30
2018-06-17T04:45:32.476Z,87.60
2018-06-17T04:48:06.778Z,86.90
2018-06-17T04:50:40.991Z,87.60
2018-06-17T04:55:49.551Z,86.30
2018-06-17T04:58:24.007Z,86.50
2018-06-17T05:00:58.223Z,85.70
2018-06-17T05:03:32.459Z,86.00
2018-06-17T05:06:06.786Z,86.00
2018-06-17T05:08:41.117Z,85.10
2018-06-17T05:11:15.395Z,84.60
2018-06-17T05:13:49.797Z,84.80
2018-06-17T05:16:23.998Z,85.20
2018-06-17T05:18:58.207Z,85.00
2018-06-17T05:21:32.602Z,85.50
2018-06-17T05:24:06.941Z,84.60
2018-06-17T05:26:41.201Z,84.20
2018-06-17T05:29:15.461Z,84.00
2018-06-17T05:31:49.955Z,84.00
2018-06-17T05:34:24.388Z,82.50
2018-06-17T05:36:58.578Z,82.40
2018-06-17T05:39:32.918Z,82.30
2018-06-17T05:44:41.227Z,83.10
2018-06-17T05:47:15.447Z,82.80
2018-06-17T05:49:49.653Z,81.40
2018-06-17T05:52:23.926Z,81.50
2018-06-17T05:54:58.151Z,80.80
2018-06-17T05:57:32.615Z,80.00
2018-06-17T06:00:07.019Z,79.00
2018-06-17T06:02:41.296Z,78.50
2018-06-17T06:10:23.998Z,78.50
2018-06-17T06:12:58.307Z,77.00
2018-06-17T06:15:32.590Z,76.50
2018-06-17T06:18:06.797Z,76.00
2018-06-17T06:20:41.170Z,77.00
2018-06-17T06:23:15.486Z,76.00
2018-06-17T06:25:49.751Z,76.70
2018-06-17T06:28:24.073Z,77.70
2018-06-17T06:30:58.389Z,75.80
2018-06-17T06:33:32.571Z,75.00
2018-06-17T06:36:06.893Z,76.80
2018-06-17T06:38:41.237Z,76.50
2018-06-17T06:41:15.573Z,75.00
2018-06-17T06:43:49.855Z,74.30
2018-06-17T06:46:24.091Z,74.00
2018-06-17T06:48:58.449Z,74.40
2018-06-17T06:51:32.720Z,74.30
2018-06-17T06:54:06.911Z,72.20
2018-06-17T06:56:41.101Z,71.70
2018-06-17T06:59:15.333Z,72.30
2018-06-17T07:02:01.048Z,72.60
2018-06-17T07:04:46.799Z,72.00
2018-06-17T07:07:32.703Z,72.00
2018-06-17T07:12:46.676Z,71.50
2018-06-17T07:15:32.536Z,71.50
2018-06-17T07:18:18.090Z,71.70
2018-06-17T07:20:52.347Z,70.30
2018-06-17T07:23:26.610Z,69.80
2018-06-17T07:26:40.639Z,68.50
2018-06-17T07:29:28.590Z,68.70
2018-06-17T07:32:02.882Z,68.90
2018-06-17T07:34:37.188Z,68.00
2018-06-17T07:37:11.420Z,67.80
2018-06-17T07:40:50.174Z,68.20
2018-06-17T07:43:24.452Z,67.40
2018-06-17T07:45:58.782Z,67.10
2018-06-17T07:49:46.666Z,66.60
2018-06-17T07:52:33.568Z,66.30
2018-06-17T07:55:07.839Z,66.30
2018-06-17T07:57:42.171Z,66.30
2018-06-17T08:00:16.434Z,65.10
2018-06-17T08:02:50.821Z,65.60
2018-06-17T08:05:25.124Z,65.80
2018-06-17T08:10:33.518Z,64.80
2018-06-17T08:13:07.878Z,64.90
2018-06-17T08:15:42.190Z,62.80
2018-06-17T08:18:16.486Z,62.30
2018-06-17T08:20:50.778Z,61.90
2018-06-17T08:23:24.923Z,62.40
2018-06-17T08:28:33.354Z,60.90
2018-06-17T08:31:07.791Z,61.70
2018-06-17T08:33:42.149Z,61.50
2018-06-17T08:36:16.322Z,61.50
2018-06-17T08:38:50.651Z,60.40
2018-06-17T08:41:24.926Z,59.80
2018-06-17T08:43:59.384Z,60.20
2018-06-17T08:46:33.699Z,61.20
2018-06-17T08:49:07.943Z,60.60
2018-06-17T08:51:42.269Z,60.60
2018-06-17T08:54:16.645Z,61.20
2018-06-17T08:56:50.928Z,61.20
2018-06-17T08:59:25.151Z,60.10
2018-06-17T09:01:59.588Z,60.90
2018-06-17T09:04:33.887Z,59.40
2018-06-17T09:07:08.246Z,58.90
2018-06-17T09:09:42.521Z,57.80
2018-06-17T09:12:16.855Z,58.40
2018-06-17T09:14:50.982Z,58.30
2018-06-17T09:17:25.167Z,58.10
2018-06-17T09:19:59.526Z,58.10
2018-06-17T09:22:33.856Z,58.20
2018-06-17T09:25:08.261Z,58.30
2018-06-17T09:27:42.554Z,58.80
2018-06-17T09:30:16.843Z,58.40
2018-06-17T09:32:51.310Z,58.30
2018-06-17T09:35:25.671Z,59.30
2018-06-17T09:37:59.869Z,59.30
2018-06-17T09:40:34.278Z,58.50
2018-06-17T09:43:08.611Z,58.10
2018-06-17T09:45:42.831Z,58.40
2018-06-17T09:48:17.359Z,58.00
2018-06-17T09:50:51.730Z,56.60
2018-06-17T09:53:26.255Z,56.50
2018-06-17T09:56:00.558Z,57.00
2018-06-17T09:58:35.031Z,56.20
2018-06-17T10:01:09.195Z,56.20
2018-06-17T10:03:43.567Z,57.10
2018-06-17T10:06:17.754Z,57.30
2018-06-17T10:08:52.126Z,57.40
2018-06-17T10:11:26.543Z,57.40
2018-06-17T10:14:00.770Z,56.70
2018-06-17T10:16:35.131Z,56.00
2018-06-17T10:19:09.465Z,55.90
2018-06-17T10:21:43.771Z,56.20
2018-06-17T10:24:17.946Z,54.80
2018-06-17T10:26:52.159Z,55.10
2018-06-17T10:29:26.588Z,55.40
2018-06-17T10:32:00.890Z,55.60
2018-06-17T10:34:35.155Z,54.60
2018-06-17T10:37:09.497Z,54.90
2018-06-17T10:39:43.819Z,55.60
2018-06-17T10:42:18.119Z,55.20
2018-06-17T10:44:52.350Z,55.60
2018-06-17T10:47:26.828Z,54.30
2018-06-17T10:50:01.143Z,55.00
2018-06-17T10:52:35.499Z,55.40
2018-06-17T10:55:10.531Z,54.90
2018-06-17T10:57:45.858Z,54.70
2018-06-17T11:00:20.188Z,54.80
2018-06-17T11:02:54.504Z,53.80
2018-06-17T11:05:28.851Z,53.20
2018-06-17T11:08:03.088Z,54.70
2018-06-17T11:10:37.483Z,54.20
2018-06-17T11:13:11.816Z,55.20
2018-06-17T11:15:46.162Z,55.80
2018-06-17T11:18:20.538Z,55.20
2018-06-17T11:20:54.686Z,54.90
2018-06-17T11:23:28.986Z,54.20
2018-06-17T11:26:03.305Z,54.80
2018-06-17T11:28:37.602Z,55.60
2018-06-17T11:31:11.942Z,55.10
2018-06-17T11:33:46.303Z,54.80
2018-06-17T11:36:20.522Z,55.50
2018-06-17T11:38:54.763Z,54.10
2018-06-17T11:41:29.023Z,54.90
2018-06-17T11:44:03.343Z,54.40
2018-06-17T11:46:37.758Z,54.40
2018-06-17T11:49:12.416Z,53.10
2018-06-17T11:54:21.037Z,54.00
2018-06-17T11:56:55.180Z,53.90
2018-06-17T11:59:29.607Z,54.10
2018-06-17T12:02:03.963Z,52.50
2018-06-17T12:04:38.335Z,51.30
2018-06-17T12:07:12.602Z,51.80
2018-06-17T12:09:46.912Z,52.20
2018-06-17T12:12:21.191Z,51.50
2018-06-17T12:14:55.514Z,52.10
2018-06-17T12:17:29.653Z,52.00
2018-06-17T12:20:04.016Z,52.10
2018-06-17T12:22:38.273Z,52.00
2018-06-17T12:25:12.432Z,52.80
2018-06-17T12:27:46.932Z,52.50
2018-06-17T12:30:21.295Z,52.20
2018-06-17T12:32:55.598Z,53.00
2018-06-17T12:35:29.786Z,53.10
2018-06-17T12:38:04.188Z,52.90
2018-06-17T12:40:38.489Z,51.40
2018-06-17T12:43:12.746Z,51.90
2018-06-17T12:45:47.214Z,50.20
2018-06-17T12:48:21.387Z,51.60
2018-06-17T12:50:55.722Z,51.30
2018-06-17T12:53:30.060Z,50.70
2018-06-17T12:56:04.291Z,52.00
2018-06-17T12:58:38.610Z,50.90
2018-06-17T13:01:12.920Z,50.70
2018-06-17T13:03:47.162Z,51.10
2018-06-17T13:06:21.546Z,52.10
2018-06-17T13:08:55.882Z,51.00
2018-06-17T13:11:30.211Z,51.20
2018-06-17T13:14:04.551Z,52.10
2018-06-17T13:16:38.841Z,51.50
2018-06-17T13:19:13.159Z,52.10
2018-06-17T13:21:47.402Z,52.30
2018-06-17T13:24:21.726Z,51.40
2018-06-17T13:29:29.962Z,52.80
2018-06-17T13:32:04.200Z,52.70
2018-06-17T13:34:38.499Z,52.30
2018-06-17T13:37:12.918Z,52.60
2018-06-17T13:39:47.205Z,52.00
2018-06-17T13:42:21.501Z,52.90
2018-06-17T13:44:55.815Z,52.10
2018-06-17T13:47:30.121Z,53.00
2018-06-17T13:50:04.783Z,52.90
2018-06-17T13:52:39.170Z,52.60
2018-06-17T13:55:13.374Z,52.90
2018-06-17T13:57:47.693Z,52.60
2018-06-17T14:00:21.925Z,53.00
2018-06-17T14:02:56.212Z,52.60
2018-06-17T14:05:30.458Z,53.30
2018-06-17T14:08:04.622Z,53.20
2018-06-17T14:10:38.890Z,52.80
2018-06-17T14:13:13.159Z,52.50
2018-06-17T14:15:47.419Z,52.80
2018-06-17T14:18:21.744Z,52.70
2018-06-17T14:20:55.900Z,52.50
2018-06-17T14:23:30.345Z,52.60
2018-06-17T14:26:04.622Z,53.60
2018-06-17T14:31:13.142Z,53.20
2018-06-17T14:33:47.440Z,53.00
2018-06-17T14:36:21.717Z,53.00
2018-06-17T14:38:56.090Z,53.30
2018-06-17T14:41:30.416Z,53.30
2018-06-17T14:44:10.188Z,53.40
2018-06-17T14:46:49.723Z,52.50
2018-06-17T14:49:29.390Z,54.00
2018-06-17T14:54:41.015Z,53.50
2018-06-17T14:57:15.290Z,51.50
2018-06-17T14:59:49.530Z,51.40
2018-06-17T15:02:23.923Z,51.60
2018-06-17T15:04:58.230Z,51.20
2018-06-17T15:07:32.676Z,51.50
2018-06-17T15:10:06.883Z,50.10
2018-06-17T15:12:41.187Z,49.00
2018-06-17T15:15:15.433Z,50.20
2018-06-17T15:17:49.827Z,49.40
2018-06-17T15:22:58.096Z,50.20
2018-06-17T15:25:32.403Z,50.70
2018-06-17T15:28:06.584Z,50.50
2018-06-17T15:30:40.858Z,49.90
2018-06-17T15:33:20.740Z,50.00
2018-06-17T15:36:00.457Z,50.10
2018-06-17T15:38:40.067Z,49.40
2018-06-17T15:41:30.711Z,50.40
2018-06-17T15:44:05.019Z,50.70
2018-06-17T15:46:39.306Z,50.60
2018-06-17T15:49:13.507Z,50.10
2018-06-17T15:51:47.799Z,50.50
2018-06-17T15:54:22.118Z,51.00
2018-06-17T15:56:56.400Z,50.70
2018-06-17T15:59:30.792Z,50.50
2018-06-17T16:02:04.964Z,49.00
2018-06-17T16:04:39.242Z,49.20
2018-06-17T16:07:13.530Z,48.40
2018-06-17T16:09:47.857Z,48.40
2018-06-17T16:12:27.690Z,49.30
2018-06-17T16:15:07.242Z,49.20
2018-06-17T16:17:46.948Z,48.40
2018-06-17T16:20:26.555Z,48.50
2018-06-17T16:23:00.958Z,48.00
2018-06-17T16:25:35.379Z,48.10
2018-06-17T16:28:09.641Z,49.10
2018-06-17T16:30:43.937Z,48.80
2018-06-17T16:33:18.365Z,49.20
2018-06-17T16:35:52.795Z,49.20
2018-06-17T16:38:27.200Z,49.70
2018-06-17T16:41:01.511Z,49.70
2018-06-17T16:43:35.858Z,50.40
2018-06-17T16:46:10.177Z,49.80
2018-06-17T16:48:44.334Z,49.80
2018-06-17T16:51:24.106Z,49.60
2018-06-17T16:54:03.714Z,50.80
2018-06-17T16:56:43.238Z,51.60
2018-06-17T16:59:22.818Z,51.10
2018-06-17T17:01:57.027Z,51.70
2018-06-17T17:04:31.420Z,50.70
2018-06-17T17:07:05.679Z,51.20
2018-06-17T17:09:39.859Z,51.40
2018-06-17T17:12:14.201Z,51.90
2018-06-17T17:14:48.398Z,51.50
2018-06-17T17:17:22.677Z,51.50
2018-06-17T17:19:56.909Z,51.80
2018-06-17T17:22:31.125Z,51.60
2018-06-17T17:25:05.438Z,51.80
2018-06-17T17:27:39.688Z,51.40
2018-06-17T17:30:13.999Z,51.90
2018-06-17T17:32:53.699Z,51.50
2018-06-17T17:35:33.451Z,51.40
2018-06-17T17:38:13.046Z,52.20
2018-06-17T17:40:52.289Z,53.00
2018-06-17T17:43:26.789Z,52.70
2018-06-17T17:46:06.458Z,52.30
2018-06-17T17:48:40.707Z,52.30
2018-06-17T17:51:15.042Z,52.50
2018-06-17T17:53:49.544Z,52.30
2018-06-17T17:56:23.830Z,52.80
2018-06-17T17:58:58.232Z,52.60
2018-06-17T18:01:32.471Z,53.30
2018-06-17T18:04:06.762Z,53.00
2018-06-17T18:06:41.002Z,53.40
2018-06-17T18:09:15.310Z,53.60
2018-06-17T18:11:49.656Z,53.40
2018-06-17T18:14:23.977Z,53.70
2018-06-17T18:16:58.368Z,53.70
2018-06-17T18:19:32.727Z,53.80
2018-06-17T18:22:07.087Z,54.10
2018-06-17T18:24:41.317Z,54.30
2018-06-17T18:27:20.955Z,54.20
2018-06-17T18:30:00.543Z,54.30
2018-06-17T18:32:40.135Z,54.30
2018-06-17T18:35:20.006Z,54.60
2018-06-17T18:37:54.210Z,54.50
2018-06-17T18:40:28.526Z,54.60
2018-06-17T18:43:02.917Z,54.90
2018-06-17T18:45:37.044Z,55.20
2018-06-17T18:48:17.084Z,55.80
2018-06-17T18:50:51.375Z,55.70
2018-06-17T18:53:26.106Z,55.80
2018-06-17T18:56:00.244Z,55.70
2018-06-17T18:58:34.423Z,55.80
2018-06-17T19:01:08.575Z,55.50
2018-06-17T19:03:42.725Z,56.00
2018-06-17T19:06:17.004Z,55.80
2018-06-17T19:08:56.561Z,55.90
2018-06-17T19:11:36.055Z,56.10
2018-06-17T19:14:15.778Z,56.30
2018-06-17T19:16:55.215Z,55.90
2018-06-17T19:19:29.387Z,56.60
2018-06-17T19:22:03.754Z,56.40
2018-06-17T19:24:37.941Z,56.30
2018-06-17T19:27:12.262Z,56.70
2018-06-17T19:29:46.666Z,56.60
2018-06-17T19:32:20.867Z,56.50
2018-06-17T19:34:55.106Z,56.80
2018-06-17T19:40:03.193Z,56.80
2018-06-17T19:42:37.470Z,57.10
2018-06-17T19:45:11.898Z,57.20
2018-06-17T19:47:46.239Z,57.50
2018-06-17T19:50:25.884Z,57.70
2018-06-17T19:53:05.558Z,57.70
2018-06-17T19:55:45.390Z,57.90
2018-06-17T19:58:25.118Z,57.90
2018-06-17T20:01:01.110Z,57.70
2018-06-17T20:03:35.406Z,57.80
2018-06-17T20:06:09.751Z,58.20
2018-06-17T20:08:43.942Z,58.30
2018-06-17T20:11:18.270Z,58.30
2018-06-17T20:13:52.691Z,58.30
2018-06-17T20:16:26.941Z,58.80
2018-06-17T20:19:01.145Z,58.90
2018-06-17T20:21:35.454Z,58.90
2018-06-17T20:24:09.815Z,58.80
2018-06-17T20:26:44.142Z,58.80
2018-06-17T20:29:18.629Z,59.30
2018-06-17T20:31:58.190Z,59.70
2018-06-17T20:34:37.908Z,59.40
2018-06-17T20:37:17.435Z,59.20
2018-06-17T20:39:56.950Z,59.40
2018-06-17T20:45:10.754Z,59.70
2018-06-17T20:47:45.007Z,59.70
2018-06-17T20:50:19.441Z,59.70
2018-06-17T20:52:53.729Z,59.90
2018-06-17T20:55:28.031Z,60.30
2018-06-17T20:58:02.345Z,60.00
2018-06-17T21:00:36.686Z,60.30
2018-06-17T21:03:10.893Z,60.40
2018-06-17T21:05:45.273Z,60.60
2018-06-17T21:08:19.570Z,60.80
2018-06-17T21:10:53.766Z,60.70
2018-06-17T21:13:28.934Z,61.10
2018-06-17T21:16:03.282Z,61.20
2018-06-17T21:20:49.802Z,60.40
2018-06-17T21:23:29.490Z,61.50
2018-06-17T21:26:09.188Z,61.20
2018-06-17T21:28:43.367Z,62.00
2018-06-17T21:31:17.653Z,63.00
2018-06-17T21:33:51.924Z,64.10
2018-06-17T21:36:26.317Z,65.10
2018-06-17T21:39:00.595Z,65.20
2018-06-17T21:41:35.374Z,65.30
2018-06-17T21:44:10.093Z,66.60
2018-06-17T21:46:44.402Z,66.60
2018-06-17T21:49:18.688Z,66.80
2018-06-17T21:51:52.995Z,67.00
2018-06-17T21:54:27.290Z,67.90
2018-06-17T21:57:01.719Z,68.60
2018-06-17T21:59:36.006Z,68.50
2018-06-17T22:02:10.176Z,68.50
2018-06-17T22:04:44.551Z,69.80
2018-06-17T22:07:18.857Z,69.10
2018-06-17T22:09:58.977Z,69.30
2018-06-17T22:12:38.674Z,70.50
2018-06-17T22:15:18.067Z,70.20
2018-06-17T22:17:53.141Z,70.60
2018-06-17T22:20:27.425Z,70.30
2018-06-17T22:23:01.830Z,70.60
2018-06-17T22:25:36.083Z,71.00
2018-06-17T22:28:10.367Z,70.80
2018-06-17T22:30:44.594Z,71.10
2018-06-17T22:33:18.902Z,70.70
2018-06-17T22:35:53.066Z,71.20
2018-06-17T22:38:27.456Z,71.50
2018-06-17T22:41:01.675Z,71.70
2018-06-17T22:43:36.106Z,71.10
2018-06-17T22:46:10.467Z,71.00
2018-06-17T22:48:44.647Z,71.00
2018-06-17T22:51:18.942Z,70.90
2018-06-17T22:54:04.627Z,71.50
2018-06-17T22:56:44.077Z,71.80
2018-06-17T22:59:23.888Z,71.30
2018-06-17T23:02:03.511Z,71.80
2018-06-17T23:04:43.066Z,71.30
2018-06-17T23:07:22.843Z,71.30
2018-06-17T23:09:57.030Z,71.30
2018-06-17T23:12:31.292Z,71.30
2018-06-17T23:15:05.917Z,71.90
2018-06-17T23:17:40.062Z,72.20
2018-06-17T23:20:14.488Z,72.00
2018-06-17T23:22:48.866Z,72.10
2018-06-17T23:25:23.176Z,72.50
2018-06-17T23:27:57.463Z,72.50
2018-06-17T23:30:31.661Z,72.40
2018-06-17T23:33:05.862Z,72.20
2018-06-17T23:35:40.263Z,72.00
2018-06-17T23:38:14.730Z,72.30
2018-06-17T23:40:48.948Z,72.40
2018-06-17T23:43:23.278Z,73.00
2018-06-17T23:46:02.930Z,73.30
2018-06-17T23:48:42.510Z,73.90
2018-06-17T23:51:22.037Z,74.10
2018-06-17T23:54:01.710Z,73.90
2018-06-17T23:56:35.881Z,74.20
2018-06-17T23:59:10.231Z,74.40
